createdAt,value
2019-05-30T17:54:47.013Z,1.20
2019-05-30T17:57:18.045Z,1.57
2019-05-30T17:59:47.925Z,1.30
2019-05-30T18:02:17.838Z,1.47
2019-05-30T18:04:47.688Z,1.35
2019-05-30T18:07:17.694Z,1.12
2019-05-30T18:09:47.537Z,1.40
2019-05-30T18:12:17.453Z,1.57
2019-05-30T18:14:49.689Z,1.20
2019-05-30T18:17:23.011Z,1.10
2019-05-30T18:19:53.135Z,1.27
2019-05-30T18:22:23.418Z,1.05
2019-05-30T18:24:53.534Z,1.15
2019-05-30T18:27:23.901Z,1.10
2019-05-30T18:29:53.818Z,1.07
2019-05-30T18:32:26.601Z,1.20
2019-05-30T18:34:57.433Z,1.32
2019-05-30T18:37:28.917Z,1.10
2019-05-30T18:40:00.646Z,1.07
2019-05-30T18:42:33.688Z,1.37
2019-05-30T18:45:04.922Z,1.55
2019-05-30T18:47:34.837Z,1.40
2019-05-30T18:50:06.411Z,2.08
2019-05-30T18:52:36.833Z,2.30
2019-05-30T18:55:08.239Z,1.47
2019-05-30T18:57:38.318Z,1.70
2019-05-30T19:00:09.269Z,1.00
2019-05-30T19:02:39.970Z,1.32
2019-05-30T19:05:09.944Z,1.20
2019-05-30T19:07:39.862Z,1.27
2019-05-30T19:10:09.992Z,1.22
2019-05-30T19:12:40.023Z,1.30
2019-05-30T19:15:09.936Z,1.40
2019-05-30T19:17:39.850Z,2.20
2019-05-30T19:20:10.062Z,1.95
2019-05-30T19:22:41.745Z,1.70
2019-05-30T19:25:12.036Z,1.32
2019-05-30T19:27:41.878Z,1.62
2019-05-30T19:30:12.556Z,1.20
2019-05-30T19:32:42.410Z,1.20
2019-05-30T19:35:13.583Z,1.50
2019-05-30T19:37:43.542Z,1.32
2019-05-30T19:40:14.683Z,1.52
2019-05-30T19:42:45.277Z,2.00
2019-05-30T19:45:16.114Z,1.52
2019-05-30T19:47:45.958Z,1.70
2019-05-30T19:50:15.977Z,1.65
2019-05-30T19:52:47.105Z,1.92
2019-05-30T19:55:16.953Z,1.65
2019-05-30T19:57:46.836Z,1.57
2019-05-30T20:00:18.045Z,1.92
2019-05-30T20:02:47.963Z,1.87
2019-05-30T20:05:19.598Z,2.02
2019-05-30T20:07:49.637Z,1.60
2019-05-30T20:10:19.783Z,1.90
2019-05-30T20:12:49.634Z,2.47
2019-05-30T20:15:19.779Z,2.77
2019-05-30T20:17:49.906Z,2.25
2019-05-30T20:20:20.050Z,2.80
2019-05-30T20:22:50.118Z,2.58
2019-05-30T20:25:20.404Z,2.33
2019-05-30T20:27:50.395Z,1.90
2019-05-30T20:30:20.774Z,1.55
2019-05-30T20:32:50.684Z,1.62
2019-05-30T20:35:20.631Z,1.70
2019-05-30T20:37:50.495Z,1.87
2019-05-30T20:40:21.270Z,1.62
2019-05-30T20:42:51.128Z,1.67
2019-05-30T20:45:21.104Z,1.85
2019-05-30T20:47:50.947Z,2.08
2019-05-30T20:50:21.871Z,2.05
2019-05-30T20:52:51.829Z,2.30
2019-05-30T20:55:22.237Z,2.20
2019-05-30T20:57:52.083Z,2.95
2019-05-30T21:00:25.096Z,2.20
2019-05-30T21:02:54.927Z,2.45
2019-05-30T21:05:24.780Z,2.37
2019-05-30T21:07:54.696Z,1.70
2019-05-30T21:10:24.585Z,2.00
2019-05-30T21:12:55.150Z,1.62
2019-05-30T21:15:26.240Z,1.95
2019-05-30T21:17:58.056Z,1.60
2019-05-30T21:20:27.968Z,1.57
2019-05-30T21:22:57.879Z,2.22
2019-05-30T21:25:27.726Z,1.77
2019-05-30T21:28:00.350Z,1.45
2019-05-30T21:30:30.245Z,1.62
2019-05-30T21:33:00.157Z,1.67
2019-05-30T21:35:30.042Z,1.80
2019-05-30T21:37:59.966Z,1.70
2019-05-30T21:40:29.908Z,1.57
2019-05-30T21:43:06.493Z,1.72
2019-05-30T21:45:31.480Z,2.00
2019-05-30T21:48:01.347Z,1.90
2019-05-30T21:50:31.259Z,1.80
2019-05-30T21:53:01.093Z,1.85
2019-05-30T21:55:31.026Z,1.75
2019-05-30T21:58:00.935Z,1.70
2019-05-30T22:00:50.882Z,2.20
2019-05-30T22:03:22.522Z,2.02
2019-05-30T22:05:52.375Z,2.02
2019-05-30T22:08:22.308Z,2.25
2019-05-30T22:10:52.176Z,1.90
2019-05-30T22:13:22.038Z,2.22
2019-05-30T22:15:52.197Z,2.00
2019-05-30T22:18:22.095Z,2.30
2019-05-30T22:20:52.135Z,2.00
2019-05-30T22:23:21.980Z,1.80
2019-05-30T22:25:53.047Z,1.90
2019-05-30T22:28:22.962Z,1.95
2019-05-30T22:30:52.945Z,2.10
2019-05-30T22:33:22.739Z,2.00
2019-05-30T22:35:53.332Z,2.35
2019-05-30T22:38:23.266Z,2.20
2019-05-30T22:40:54.431Z,1.90
2019-05-30T22:43:25.552Z,2.00
2019-05-30T22:45:56.748Z,1.87
2019-05-30T22:48:28.314Z,1.95
2019-05-30T22:50:59.362Z,1.92
2019-05-30T22:53:29.864Z,2.20
2019-05-30T22:55:59.770Z,1.70
2019-05-30T22:58:29.722Z,2.30
2019-05-30T23:00:59.559Z,2.20
2019-05-30T23:03:29.409Z,2.47
2019-05-30T23:05:59.265Z,2.02
2019-05-30T23:08:29.242Z,1.87
2019-05-30T23:10:59.154Z,2.00
2019-05-30T23:13:40.040Z,1.82
2019-05-30T23:16:00.550Z,1.98
2019-05-30T23:18:30.497Z,2.33
2019-05-30T23:21:00.328Z,1.70
2019-05-30T23:23:30.168Z,1.85
2019-05-30T23:26:00.047Z,1.92
2019-05-30T23:28:29.875Z,2.22
2019-05-30T23:30:59.793Z,1.87
2019-05-30T23:33:29.638Z,1.82
2019-05-30T23:35:59.485Z,1.75
2019-05-30T23:38:29.327Z,2.02
2019-05-30T23:40:59.278Z,2.25
2019-05-30T23:43:29.101Z,1.90
2019-05-30T23:45:59.634Z,1.75
2019-05-30T23:48:29.561Z,1.92
2019-05-30T23:51:00.490Z,1.85
2019-05-30T23:53:30.373Z,1.87
2019-05-30T23:56:00.617Z,2.33
